sensor_id;sensor_type;location;lat;lon;timestamp;temperature;humidity
44219;DHT22;29889;52.034;5.570;2022-08-07T00:00:05;21.90;99.90
44219;DHT22;29889;52.034;5.570;2022-08-07T00:00:36;21.90;99.90
44219;DHT22;29889;52.034;5.570;2022-08-07T00:01:07;21.90;99.90
44219;DHT22;29889;52.034;5.570;2022-08-07T00:01:37;21.90;99.90
44219;DHT22;29889;52.034;5.570;2022-08-07T00:02:08;22.00;99.90
44219;DHT22;29889;52.034;5.570;2022-08-07T00:02:38;21.90;99.90
44219;DHT22;29889;52.034;5.570;2022-08-07T00:03:09;21.90;99.90
44219;DHT22;29889;52.034;5.570;2022-08-07T00:03:39;21.90;99.90
44219;DHT22;29889;52.034;5.570;2022-08-07T00:04:11;21.90;99.90
44219;DHT22;29889;52.034;5.570;2022-08-07T00:04:42;21.90;99.90
44219;DHT22;29889;52.034;5.570;2022-08-07T00:05:13;21.90;99.90
44219;DHT22;29889;52.034;5.570;2022-08-07T00:05:44;21.80;99.90
44219;DHT22;29889;52.034;5.570;2022-08-07T00:06:15;21.80;99.90
44219;DHT22;29889;52.034;5.570;2022-08-07T00:06:45;21.80;99.90
44219;DHT22;29889;52.034;5.570;2022-08-07T00:07:16;21.80;99.90
44219;DHT22;29889;52.034;5.570;2022-08-07T00:07:48;21.80;99.90
44219;DHT22;29889;52.034;5.570;2022-08-07T00:08:19;21.80;99.90
44219;DHT22;29889;52.034;5.570;2022-08-07T00:08:50;21.80;99.90
44219;DHT22;29889;52.034;5.570;2022-08-07T00:09:20;21.80;99.90
44219;DHT22;29889;52.034;5.570;2022-08-07T00:09:51;21.80;99.90
44219;DHT22;29889;52.034;5.570;2022-08-07T00:10:21;21.80;99.90
44219;DHT22;29889;52.034;5.570;2022-08-07T00:10:52;21.80;99.90
44219;DHT22;29889;52.034;5.570;2022-08-07T00:11:23;21.80;99.90
44219;DHT22;29889;52.034;5.570;2022-08-07T00:11:53;21.80;99.90
44219;DHT22;29889;52.034;5.570;2022-08-07T00:12:25;21.80;99.90
44219;DHT22;29889;52.034;5.570;2022-08-07T00:12:56;21.80;99.90
44219;DHT22;29889;52.034;5.570;2022-08-07T00:13:27;21.70;99.90
44219;DHT22;29889;52.034;5.570;2022-08-07T00:13:58;21.80;99.90
44219;DHT22;29889;52.034;5.570;2022-08-07T00:14:28;21.70;99.90
44219;DHT22;29889;52.034;5.570;2022-08-07T00:15:00;21.70;99.90
44219;DHT22;29889;52.034;5.570;2022-08-07T00:15:31;21.70;99.90
44219;DHT22;29889;52.034;5.570;2022-08-07T00:16:03;21.70;99.90
44219;DHT22;29889;52.034;5.570;2022-08-07T00:16:34;21.70;99.90
44219;DHT22;29889;52.034;5.570;2022-08-07T00:17:05;21.70;99.90
44219;DHT22;29889;52.034;5.570;2022-08-07T00:17:35;21.70;99.90
44219;DHT22;29889;52.034;5.570;2022-08-07T00:18:06;21.70;99.90
44219;DHT22;29889;52.034;5.570;2022-08-07T00:18:38;21.70;99.90
44219;DHT22;29889;52.034;5.570;2022-08-07T00:19:09;21.70;99.90
44219;DHT22;29889;52.034;5.570;2022-08-07T00:19:39;21.80;99.90
44219;DHT22;29889;52.034;5.570;2022-08-07T00:20:10;21.70;99.90
44219;DHT22;29889;52.034;5.570;2022-08-07T00:20:41;21.70;99.90
44219;DHT22;29889;52.034;5.570;2022-08-07T00:21:11;21.70;99.90
44219;DHT22;29889;52.034;5.570;2022-08-07T00:21:42;21.70;99.90
44219;DHT22;29889;52.034;5.570;2022-08-07T00:22:12;21.70;99.90
44219;DHT22;29889;52.034;5.570;2022-08-07T00:22:43;21.70;99.90
44219;DHT22;29889;52.034;5.570;2022-08-07T00:23:13;21.70;99.90
44219;DHT22;29889;52.034;5.570;2022-08-07T00:23:44;21.70;99.90
44219;DHT22;29889;52.034;5.570;2022-08-07T00:24:14;21.70;99.90
44219;DHT22;29889;52.034;5.570;2022-08-07T00:24:45;21.70;99.90
44219;DHT22;29889;52.034;5.570;2022-08-07T00:25:15;21.70;99.90
44219;DHT22;29889;52.034;5.570;2022-08-07T00:25:46;21.60;99.90
44219;DHT22;29889;52.034;5.570;2022-08-07T00:26:17;21.60;99.90
44219;DHT22;29889;52.034;5.570;2022-08-07T00:26:47;21.60;99.90
44219;DHT22;29889;52.034;5.570;2022-08-07T00:27:18;21.60;99.90
44219;DHT22;29889;52.034;5.570;2022-08-07T00:27:49;21.60;99.90
44219;DHT22;29889;52.034;5.570;2022-08-07T00:28:20;21.70;99.90
44219;DHT22;29889;52.034;5.570;2022-08-07T00:28:51;21.60;99.90
44219;DHT22;29889;52.034;5.570;2022-08-07T00:29:21;21.60;99.90
44219;DHT22;29889;52.034;5.570;2022-08-07T00:29:55;21.60;99.90
44219;DHT22;29889;52.034;5.570;2022-08-07T00:30:26;21.60;99.90
44219;DHT22;29889;52.034;5.570;2022-08-07T00:30:57;21.60;99.90
44219;DHT22;29889;52.034;5.570;2022-08-07T00:31:27;21.60;99.90
44219;DHT22;29889;52.034;5.570;2022-08-07T00:31:58;21.60;99.90
44219;DHT22;29889;52.034;5.570;2022-08-07T00:32:29;21.60;99.90
44219;DHT22;29889;52.034;5.570;2022-08-07T00:33:00;21.60;99.90
44219;DHT22;29889;52.034;5.570;2022-08-07T00:33:30;21.60;99.90
44219;DHT22;29889;52.034;5.570;2022-08-07T00:34:01;21.60;99.90
44219;DHT22;29889;52.034;5.570;2022-08-07T00:34:32;21.60;99.90
44219;DHT22;29889;52.034;5.570;2022-08-07T00:35:03;21.60;99.90
44219;DHT22;29889;52.034;5.570;2022-08-07T00:35:34;21.60;99.90
44219;DHT22;29889;52.034;5.570;2022-08-07T00:36:06;21.60;99.90
44219;DHT22;29889;52.034;5.570;2022-08-07T00:36:37;21.60;99.90
44219;DHT22;29889;52.034;5.570;2022-08-07T00:37:08;20.30;99.90
44219;DHT22;29889;52.034;5.570;2022-08-07T00:37:38;21.60;99.90
44219;DHT22;29889;52.034;5.570;2022-08-07T00:38:09;21.60;99.90
44219;DHT22;29889;52.034;5.570;2022-08-07T00:38:39;21.60;99.90
44219;DHT22;29889;52.034;5.570;2022-08-07T00:39:11;21.60;99.90
44219;DHT22;29889;52.034;5.570;2022-08-07T00:39:42;21.60;99.90
44219;DHT22;29889;52.034;5.570;2022-08-07T00:40:13;21.60;99.90
44219;DHT22;29889;52.034;5.570;2022-08-07T00:40:44;21.60;99.90
44219;DHT22;29889;52.034;5.570;2022-08-07T00:41:14;21.60;99.90
44219;DHT22;29889;52.034;5.570;2022-08-07T00:41:49;21.60;99.90
44219;DHT22;29889;52.034;5.570;2022-08-07T00:42:21;21.60;99.90
44219;DHT22;29889;52.034;5.570;2022-08-07T00:42:51;21.60;99.90
44219;DHT22;29889;52.034;5.570;2022-08-07T00:43:22;21.60;99.90
44219;DHT22;29889;52.034;5.570;2022-08-07T00:43:52;21.60;99.90
44219;DHT22;29889;52.034;5.570;2022-08-07T00:44:23;21.60;99.90
44219;DHT22;29889;52.034;5.570;2022-08-07T00:44:54;21.50;99.90
44219;DHT22;29889;52.034;5.570;2022-08-07T00:45:25;21.60;99.90
44219;DHT22;29889;52.034;5.570;2022-08-07T00:45:56;21.60;99.90
44219;DHT22;29889;52.034;5.570;2022-08-07T00:46:26;21.50;99.90
44219;DHT22;29889;52.034;5.570;2022-08-07T00:46:57;21.50;99.90
44219;DHT22;29889;52.034;5.570;2022-08-07T00:47:28;21.50;99.90
44219;DHT22;29889;52.034;5.570;2022-08-07T00:47:58;21.50;99.90
44219;DHT22;29889;52.034;5.570;2022-08-07T00:48:30;21.50;99.90
44219;DHT22;29889;52.034;5.570;2022-08-07T00:49:00;21.50;99.90
44219;DHT22;29889;52.034;5.570;2022-08-07T00:49:32;21.50;99.90
44219;DHT22;29889;52.034;5.570;2022-08-07T00:50:03;21.50;99.90
44219;DHT22;29889;52.034;5.570;2022-08-07T00:50:35;21.50;99.90
44219;DHT22;29889;52.034;5.570;2022-08-07T00:51:05;21.50;99.90
44219;DHT22;29889;52.034;5.570;2022-08-07T00:51:37;21.50;99.90
44219;DHT22;29889;52.034;5.570;2022-08-07T00:52:08;21.50;99.90
44219;DHT22;29889;52.034;5.570;2022-08-07T00:52:39;21.50;99.90
44219;DHT22;29889;52.034;5.570;2022-08-07T00:53:09;21.50;99.90
44219;DHT22;29889;52.034;5.570;2022-08-07T00:53:40;21.50;99.90
44219;DHT22;29889;52.034;5.570;2022-08-07T00:54:11;21.50;99.90
44219;DHT22;29889;52.034;5.570;2022-08-07T00:54:45;21.50;99.90
44219;DHT22;29889;52.034;5.570;2022-08-07T00:55:16;21.40;99.90
44219;DHT22;29889;52.034;5.570;2022-08-07T00:55:47;21.50;99.90
44219;DHT22;29889;52.034;5.570;2022-08-07T00:56:18;21.50;99.90
44219;DHT22;29889;52.034;5.570;2022-08-07T00:56:49;21.40;99.90
44219;DHT22;29889;52.034;5.570;2022-08-07T00:57:22;21.40;99.90
44219;DHT22;29889;52.034;5.570;2022-08-07T00:57:53;21.40;99.90
44219;DHT22;29889;52.034;5.570;2022-08-07T00:58:24;21.40;99.90
44219;DHT22;29889;52.034;5.570;2022-08-07T00:58:55;21.40;99.90
44219;DHT22;29889;52.034;5.570;2022-08-07T00:59:25;21.40;99.90
44219;DHT22;29889;52.034;5.570;2022-08-07T00:59:57;21.40;99.90
44219;DHT22;29889;52.034;5.570;2022-08-07T01:00:28;21.40;99.90
44219;DHT22;29889;52.034;5.570;2022-08-07T01:00:58;21.40;99.90
44219;DHT22;29889;52.034;5.570;2022-08-07T01:01:29;21.40;99.90
44219;DHT22;29889;52.034;5.570;2022-08-07T01:02:00;21.40;99.90
44219;DHT22;29889;52.034;5.570;2022-08-07T01:02:32;21.40;99.90
44219;DHT22;29889;52.034;5.570;2022-08-07T01:03:03;21.40;99.90
44219;DHT22;29889;52.034;5.570;2022-08-07T01:03:34;21.40;99.90
44219;DHT22;29889;52.034;5.570;2022-08-07T01:04:06;21.40;99.90
44219;DHT22;29889;52.034;5.570;2022-08-07T01:04:37;21.40;99.90
44219;DHT22;29889;52.034;5.570;2022-08-07T01:05:09;21.40;99.90
44219;DHT22;29889;52.034;5.570;2022-08-07T01:05:41;21.30;99.90
44219;DHT22;29889;52.034;5.570;2022-08-07T01:06:14;21.40;99.90
44219;DHT22;29889;52.034;5.570;2022-08-07T01:06:45;21.40;99.90
44219;DHT22;29889;52.034;5.570;2022-08-07T01:07:16;21.40;99.90
44219;DHT22;29889;52.034;5.570;2022-08-07T01:07:48;21.40;99.90
44219;DHT22;29889;52.034;5.570;2022-08-07T01:08:19;21.40;99.90
44219;DHT22;29889;52.034;5.570;2022-08-07T01:08:50;21.40;99.90
44219;DHT22;29889;52.034;5.570;2022-08-07T01:09:21;21.30;99.90
44219;DHT22;29889;52.034;5.570;2022-08-07T01:09:53;21.40;99.90
44219;DHT22;29889;52.034;5.570;2022-08-07T01:10:24;21.30;99.90
44219;DHT22;29889;52.034;5.570;2022-08-07T01:10:54;21.30;99.90
44219;DHT22;29889;52.034;5.570;2022-08-07T01:11:25;21.30;99.90
44219;DHT22;29889;52.034;5.570;2022-08-07T01:11:56;21.30;99.90
44219;DHT22;29889;52.034;5.570;2022-08-07T01:12:27;21.30;99.90
44219;DHT22;29889;52.034;5.570;2022-08-07T01:12:58;21.30;99.90
44219;DHT22;29889;52.034;5.570;2022-08-07T01:13:29;21.30;99.90
44219;DHT22;29889;52.034;5.570;2022-08-07T01:14:00;21.30;99.90
44219;DHT22;29889;52.034;5.570;2022-08-07T01:14:31;21.30;99.90
44219;DHT22;29889;52.034;5.570;2022-08-07T01:15:02;21.30;99.90
44219;DHT22;29889;52.034;5.570;2022-08-07T01:15:33;21.30;99.90
44219;DHT22;29889;52.034;5.570;2022-08-07T01:16:06;21.30;99.90
44219;DHT22;29889;52.034;5.570;2022-08-07T01:16:37;21.30;99.90
44219;DHT22;29889;52.034;5.570;2022-08-07T01:17:09;21.30;99.90
44219;DHT22;29889;52.034;5.570;2022-08-07T01:17:40;21.30;99.90
44219;DHT22;29889;52.034;5.570;2022-08-07T01:18:11;21.30;99.90
44219;DHT22;29889;52.034;5.570;2022-08-07T01:18:42;21.30;99.90
44219;DHT22;29889;52.034;5.570;2022-08-07T01:19:13;21.30;99.90
44219;DHT22;29889;52.034;5.570;2022-08-07T01:19:44;21.30;99.90
44219;DHT22;29889;52.034;5.570;2022-08-07T01:20:15;21.30;99.90
44219;DHT22;29889;52.034;5.570;2022-08-07T01:21:12;21.30;99.90
44219;DHT22;29889;52.034;5.570;2022-08-07T01:21:43;21.20;99.90
44219;DHT22;29889;52.034;5.570;2022-08-07T01:22:14;21.20;99.90
44219;DHT22;29889;52.034;5.570;2022-08-07T01:22:45;21.30;99.90
44219;DHT22;29889;52.034;5.570;2022-08-07T01:23:16;21.20;99.90
44219;DHT22;29889;52.034;5.570;2022-08-07T01:23:47;21.20;99.90
44219;DHT22;29889;52.034;5.570;2022-08-07T01:24:18;21.20;99.90
44219;DHT22;29889;52.034;5.570;2022-08-07T01:24:48;21.20;99.90
44219;DHT22;29889;52.034;5.570;2022-08-07T01:25:19;21.20;99.90
44219;DHT22;29889;52.034;5.570;2022-08-07T01:25:50;21.20;99.90
44219;DHT22;29889;52.034;5.570;2022-08-07T01:26:21;21.20;99.90
44219;DHT22;29889;52.034;5.570;2022-08-07T01:26:53;21.20;99.90
44219;DHT22;29889;52.034;5.570;2022-08-07T01:27:23;21.20;99.90
44219;DHT22;29889;52.034;5.570;2022-08-07T01:27:54;21.20;99.90
44219;DHT22;29889;52.034;5.570;2022-08-07T01:28:25;21.20;99.90
44219;DHT22;29889;52.034;5.570;2022-08-07T01:28:56;21.20;99.90
44219;DHT22;29889;52.034;5.570;2022-08-07T01:29:27;21.20;99.90
44219;DHT22;29889;52.034;5.570;2022-08-07T01:30:00;21.20;99.90
44219;DHT22;29889;52.034;5.570;2022-08-07T01:30:31;21.20;99.90
44219;DHT22;29889;52.034;5.570;2022-08-07T01:31:02;21.20;99.90
44219;DHT22;29889;52.034;5.570;2022-08-07T01:31:33;21.10;99.90
44219;DHT22;29889;52.034;5.570;2022-08-07T01:32:04;21.20;99.90
44219;DHT22;29889;52.034;5.570;2022-08-07T01:32:35;21.10;99.90
44219;DHT22;29889;52.034;5.570;2022-08-07T01:33:06;21.10;99.90
44219;DHT22;29889;52.034;5.570;2022-08-07T01:33:36;21.10;99.90
44219;DHT22;29889;52.034;5.570;2022-08-07T01:34:07;21.20;99.90
44219;DHT22;29889;52.034;5.570;2022-08-07T01:34:38;21.20;99.90
44219;DHT22;29889;52.034;5.570;2022-08-07T01:35:09;21.10;99.90
44219;DHT22;29889;52.034;5.570;2022-08-07T01:35:40;21.10;99.90
44219;DHT22;29889;52.034;5.570;2022-08-07T01:36:11;21.10;99.90
44219;DHT22;29889;52.034;5.570;2022-08-07T01:36:41;21.10;99.90
44219;DHT22;29889;52.034;5.570;2022-08-07T01:37:13;21.10;99.90
44219;DHT22;29889;52.034;5.570;2022-08-07T01:37:46;21.10;99.90
44219;DHT22;29889;52.034;5.570;2022-08-07T01:38:17;21.10;99.90
44219;DHT22;29889;52.034;5.570;2022-08-07T01:38:48;21.10;99.90
44219;DHT22;29889;52.034;5.570;2022-08-07T01:39:19;21.10;99.90
44219;DHT22;29889;52.034;5.570;2022-08-07T01:39:50;21.10;99.90
44219;DHT22;29889;52.034;5.570;2022-08-07T01:40:22;21.10;99.90
44219;DHT22;29889;52.034;5.570;2022-08-07T01:40:57;21.10;99.90
44219;DHT22;29889;52.034;5.570;2022-08-07T01:41:27;21.10;99.90
44219;DHT22;29889;52.034;5.570;2022-08-07T01:41:58;21.10;99.90
44219;DHT22;29889;52.034;5.570;2022-08-07T01:42:29;21.10;99.90
44219;DHT22;29889;52.034;5.570;2022-08-07T01:42:59;21.10;99.90
44219;DHT22;29889;52.034;5.570;2022-08-07T01:43:30;21.10;99.90
44219;DHT22;29889;52.034;5.570;2022-08-07T01:44:02;21.00;99.90
44219;DHT22;29889;52.034;5.570;2022-08-07T01:44:33;21.00;99.90
44219;DHT22;29889;52.034;5.570;2022-08-07T01:45:04;21.10;99.90
44219;DHT22;29889;52.034;5.570;2022-08-07T01:45:35;21.10;99.90
44219;DHT22;29889;52.034;5.570;2022-08-07T01:46:07;21.10;99.90
44219;DHT22;29889;52.034;5.570;2022-08-07T01:46:41;21.00;99.90
44219;DHT22;29889;52.034;5.570;2022-08-07T01:47:12;21.10;99.90
44219;DHT22;29889;52.034;5.570;2022-08-07T01:47:42;21.00;99.90
44219;DHT22;29889;52.034;5.570;2022-08-07T01:48:13;21.00;99.90
44219;DHT22;29889;52.034;5.570;2022-08-07T01:48:45;21.10;99.90
44219;DHT22;29889;52.034;5.570;2022-08-07T01:49:16;21.00;99.90
44219;DHT22;29889;52.034;5.570;2022-08-07T01:49:46;21.00;99.90
44219;DHT22;29889;52.034;5.570;2022-08-07T01:50:17;21.00;99.90
44219;DHT22;29889;52.034;5.570;2022-08-07T01:50:51;21.00;99.90
44219;DHT22;29889;52.034;5.570;2022-08-07T01:51:24;21.00;99.90
44219;DHT22;29889;52.034;5.570;2022-08-07T01:51:55;21.00;99.90
44219;DHT22;29889;52.034;5.570;2022-08-07T01:52:29;21.00;99.90
44219;DHT22;29889;52.034;5.570;2022-08-07T01:53:01;21.00;99.90
44219;DHT22;29889;52.034;5.570;2022-08-07T01:53:35;21.00;99.90
44219;DHT22;29889;52.034;5.570;2022-08-07T01:54:08;21.00;99.90
44219;DHT22;29889;52.034;5.570;2022-08-07T01:54:40;21.00;99.90
44219;DHT22;29889;52.034;5.570;2022-08-07T01:55:13;21.00;99.90
44219;DHT22;29889;52.034;5.570;2022-08-07T01:55:48;21.00;99.90
44219;DHT22;29889;52.034;5.570;2022-08-07T01:56:25;21.00;99.90
44219;DHT22;29889;52.034;5.570;2022-08-07T01:57:29;21.00;99.90
44219;DHT22;29889;52.034;5.570;2022-08-07T01:58:07;21.00;99.90
44219;DHT22;29889;52.034;5.570;2022-08-07T01:58:50;21.00;99.90
44219;DHT22;29889;52.034;5.570;2022-08-07T01:59:33;21.00;99.90
44219;DHT22;29889;52.034;5.570;2022-08-07T02:00:10;21.00;99.90
44219;DHT22;29889;52.034;5.570;2022-08-07T02:00:42;21.00;99.90
44219;DHT22;29889;52.034;5.570;2022-08-07T02:01:21;21.00;99.90
44219;DHT22;29889;52.034;5.570;2022-08-07T02:02:00;20.90;99.90
44219;DHT22;29889;52.034;5.570;2022-08-07T02:03:13;21.00;99.90
44219;DHT22;29889;52.034;5.570;2022-08-07T02:03:49;20.90;99.90
44219;DHT22;29889;52.034;5.570;2022-08-07T02:04:52;20.90;99.90
44219;DHT22;29889;52.034;5.570;2022-08-07T02:05:39;20.90;99.90
44219;DHT22;29889;52.034;5.570;2022-08-07T02:06:13;20.90;99.90
44219;DHT22;29889;52.034;5.570;2022-08-07T02:06:45;20.90;99.90
44219;DHT22;29889;52.034;5.570;2022-08-07T02:07:17;20.90;99.90
44219;DHT22;29889;52.034;5.570;2022-08-07T02:07:51;20.90;99.90
44219;DHT22;29889;52.034;5.570;2022-08-07T02:08:24;20.90;99.90
44219;DHT22;29889;52.034;5.570;2022-08-07T02:08:56;20.90;99.90
44219;DHT22;29889;52.034;5.570;2022-08-07T02:09:30;20.90;99.90
44219;DHT22;29889;52.034;5.570;2022-08-07T02:10:03;20.90;99.90
44219;DHT22;29889;52.034;5.570;2022-08-07T02:10:35;20.90;99.90
44219;DHT22;29889;52.034;5.570;2022-08-07T02:11:08;20.80;99.90
44219;DHT22;29889;52.034;5.570;2022-08-07T02:11:42;20.80;99.90
44219;DHT22;29889;52.034;5.570;2022-08-07T02:12:13;20.80;99.90
44219;DHT22;29889;52.034;5.570;2022-08-07T02:12:48;20.80;99.90
44219;DHT22;29889;52.034;5.570;2022-08-07T02:13:22;20.80;99.90
44219;DHT22;29889;52.034;5.570;2022-08-07T02:13:55;20.80;99.90
44219;DHT22;29889;52.034;5.570;2022-08-07T02:14:28;20.80;99.90
44219;DHT22;29889;52.034;5.570;2022-08-07T02:15:00;20.80;99.90
44219;DHT22;29889;52.034;5.570;2022-08-07T02:15:32;20.80;99.90
44219;DHT22;29889;52.034;5.570;2022-08-07T02:16:05;20.80;99.90
44219;DHT22;29889;52.034;5.570;2022-08-07T02:16:37;20.80;99.90
44219;DHT22;29889;52.034;5.570;2022-08-07T02:17:09;20.80;99.90
44219;DHT22;29889;52.034;5.570;2022-08-07T02:17:42;20.80;99.90
44219;DHT22;29889;52.034;5.570;2022-08-07T02:18:14;20.80;99.90
44219;DHT22;29889;52.034;5.570;2022-08-07T02:18:46;20.80;99.90
44219;DHT22;29889;52.034;5.570;2022-08-07T02:19:19;20.80;99.90
44219;DHT22;29889;52.034;5.570;2022-08-07T02:19:52;20.80;99.90
44219;DHT22;29889;52.034;5.570;2022-08-07T02:20:23;20.80;99.90
44219;DHT22;29889;52.034;5.570;2022-08-07T02:20:55;20.80;99.90
44219;DHT22;29889;52.034;5.570;2022-08-07T02:21:27;20.80;99.90
44219;DHT22;29889;52.034;5.570;2022-08-07T02:21:58;20.80;99.90
44219;DHT22;29889;52.034;5.570;2022-08-07T02:23:04;20.80;99.90
44219;DHT22;29889;52.034;5.570;2022-08-07T02:23:37;20.80;99.90
44219;DHT22;29889;52.034;5.570;2022-08-07T02:24:10;20.80;99.90
44219;DHT22;29889;52.034;5.570;2022-08-07T02:24:43;20.80;99.90
44219;DHT22;29889;52.034;5.570;2022-08-07T02:25:16;20.80;99.90
44219;DHT22;29889;52.034;5.570;2022-08-07T02:25:47;20.80;99.90
44219;DHT22;29889;52.034;5.570;2022-08-07T02:26:19;20.70;99.90
44219;DHT22;29889;52.034;5.570;2022-08-07T02:26:51;20.70;99.90
44219;DHT22;29889;52.034;5.570;2022-08-07T02:27:24;20.80;99.90
44219;DHT22;29889;52.034;5.570;2022-08-07T02:27:56;20.60;99.90
44219;DHT22;29889;52.034;5.570;2022-08-07T02:28:30;20.80;99.90
44219;DHT22;29889;52.034;5.570;2022-08-07T02:29:06;20.70;99.90
44219;DHT22;29889;52.034;5.570;2022-08-07T02:29:38;20.70;99.90
44219;DHT22;29889;52.034;5.570;2022-08-07T02:30:11;20.70;99.90
44219;DHT22;29889;52.034;5.570;2022-08-07T02:30:41;20.70;99.90
44219;DHT22;29889;52.034;5.570;2022-08-07T02:31:12;20.70;99.90
44219;DHT22;29889;52.034;5.570;2022-08-07T02:31:44;20.70;99.90
44219;DHT22;29889;52.034;5.570;2022-08-07T02:32:16;20.70;99.90
44219;DHT22;29889;52.034;5.570;2022-08-07T02:32:49;20.70;99.90
44219;DHT22;29889;52.034;5.570;2022-08-07T02:33:22;20.70;99.90
44219;DHT22;29889;52.034;5.570;2022-08-07T02:33:55;20.70;99.90
44219;DHT22;29889;52.034;5.570;2022-08-07T02:34:27;20.70;99.90
44219;DHT22;29889;52.034;5.570;2022-08-07T02:34:59;20.60;99.90
44219;DHT22;29889;52.034;5.570;2022-08-07T02:35:31;20.70;99.90
44219;DHT22;29889;52.034;5.570;2022-08-07T02:36:04;20.70;99.90
44219;DHT22;29889;52.034;5.570;2022-08-07T02:36:36;20.70;99.90
44219;DHT22;29889;52.034;5.570;2022-08-07T02:37:09;20.70;99.90
44219;DHT22;29889;52.034;5.570;2022-08-07T02:37:40;20.70;99.90
44219;DHT22;29889;52.034;5.570;2022-08-07T02:38:12;20.70;99.90
44219;DHT22;29889;52.034;5.570;2022-08-07T02:38:44;20.70;99.90
44219;DHT22;29889;52.034;5.570;2022-08-07T02:39:16;20.70;99.90
44219;DHT22;29889;52.034;5.570;2022-08-07T02:40:20;20.60;99.90
44219;DHT22;29889;52.034;5.570;2022-08-07T02:40:50;20.70;99.90
44219;DHT22;29889;52.034;5.570;2022-08-07T02:41:23;20.70;99.90
44219;DHT22;29889;52.034;5.570;2022-08-07T02:41:54;20.70;99.90
44219;DHT22;29889;52.034;5.570;2022-08-07T02:42:25;20.70;99.90
44219;DHT22;29889;52.034;5.570;2022-08-07T02:42:57;20.70;99.90
44219;DHT22;29889;52.034;5.570;2022-08-07T02:43:29;20.70;99.90
44219;DHT22;29889;52.034;5.570;2022-08-07T02:44:00;20.70;99.90
44219;DHT22;29889;52.034;5.570;2022-08-07T02:44:31;20.60;99.90
44219;DHT22;29889;52.034;5.570;2022-08-07T02:45:05;20.60;99.90
44219;DHT22;29889;52.034;5.570;2022-08-07T02:45:38;20.60;99.90
44219;DHT22;29889;52.034;5.570;2022-08-07T02:46:12;20.60;99.90
44219;DHT22;29889;52.034;5.570;2022-08-07T02:46:44;20.60;99.90
44219;DHT22;29889;52.034;5.570;2022-08-07T02:47:17;20.60;99.90
44219;DHT22;29889;52.034;5.570;2022-08-07T02:47:48;20.60;99.90
44219;DHT22;29889;52.034;5.570;2022-08-07T02:48:18;20.60;99.90
44219;DHT22;29889;52.034;5.570;2022-08-07T02:48:49;20.60;99.90
44219;DHT22;29889;52.034;5.570;2022-08-07T02:49:20;20.60;99.90
44219;DHT22;29889;52.034;5.570;2022-08-07T02:49:51;20.60;99.90
44219;DHT22;29889;52.034;5.570;2022-08-07T02:50:22;20.60;99.90
44219;DHT22;29889;52.034;5.570;2022-08-07T02:50:54;20.60;99.90
44219;DHT22;29889;52.034;5.570;2022-08-07T02:51:26;20.60;99.90
44219;DHT22;29889;52.034;5.570;2022-08-07T02:52:00;20.60;99.90
44219;DHT22;29889;52.034;5.570;2022-08-07T02:52:36;20.60;99.90
44219;DHT22;29889;52.034;5.570;2022-08-07T02:53:10;20.60;99.90
44219;DHT22;29889;52.034;5.570;2022-08-07T02:53:42;20.60;99.90
44219;DHT22;29889;52.034;5.570;2022-08-07T02:54:16;20.20;99.90
44219;DHT22;29889;52.034;5.570;2022-08-07T02:54:48;20.50;99.90
44219;DHT22;29889;52.034;5.570;2022-08-07T02:55:25;20.60;99.90
44219;DHT22;29889;52.034;5.570;2022-08-07T02:55:58;20.60;99.90
44219;DHT22;29889;52.034;5.570;2022-08-07T02:56:31;20.60;99.90
44219;DHT22;29889;52.034;5.570;2022-08-07T02:57:03;20.50;99.90
44219;DHT22;29889;52.034;5.570;2022-08-07T02:57:35;20.50;99.90
44219;DHT22;29889;52.034;5.570;2022-08-07T02:58:10;20.50;99.90
44219;DHT22;29889;52.034;5.570;2022-08-07T02:58:42;20.50;99.90
44219;DHT22;29889;52.034;5.570;2022-08-07T02:59:17;20.50;99.90
44219;DHT22;29889;52.034;5.570;2022-08-07T02:59:49;20.50;99.90
44219;DHT22;29889;52.034;5.570;2022-08-07T03:00:21;20.50;99.90
44219;DHT22;29889;52.034;5.570;2022-08-07T03:00:56;20.50;99.90
44219;DHT22;29889;52.034;5.570;2022-08-07T03:01:28;20.50;99.90
44219;DHT22;29889;52.034;5.570;2022-08-07T03:01:59;20.50;99.90
44219;DHT22;29889;52.034;5.570;2022-08-07T03:02:30;20.50;99.90
44219;DHT22;29889;52.034;5.570;2022-08-07T03:03:04;20.50;99.90
44219;DHT22;29889;52.034;5.570;2022-08-07T03:03:36;20.50;99.90
44219;DHT22;29889;52.034;5.570;2022-08-07T03:04:09;20.50;99.90
44219;DHT22;29889;52.034;5.570;2022-08-07T03:04:42;20.50;99.90
44219;DHT22;29889;52.034;5.570;2022-08-07T03:05:14;20.50;99.90
44219;DHT22;29889;52.034;5.570;2022-08-07T03:05:46;20.50;99.90
44219;DHT22;29889;52.034;5.570;2022-08-07T03:06:22;20.50;99.90
44219;DHT22;29889;52.034;5.570;2022-08-07T03:06:53;20.50;99.90
44219;DHT22;29889;52.034;5.570;2022-08-07T03:07:24;20.50;99.90
44219;DHT22;29889;52.034;5.570;2022-08-07T03:07:56;20.50;99.90
44219;DHT22;29889;52.034;5.570;2022-08-07T03:08:28;20.50;99.90
44219;DHT22;29889;52.034;5.570;2022-08-07T03:09:06;20.50;99.90
44219;DHT22;29889;52.034;5.570;2022-08-07T03:09:37;20.50;99.90
44219;DHT22;29889;52.034;5.570;2022-08-07T03:10:09;20.50;99.90
44219;DHT22;29889;52.034;5.570;2022-08-07T03:10:40;20.50;99.90
44219;DHT22;29889;52.034;5.570;2022-08-07T03:11:12;20.40;99.90
44219;DHT22;29889;52.034;5.570;2022-08-07T03:11:44;20.40;99.90
44219;DHT22;29889;52.034;5.570;2022-08-07T03:12:15;20.50;99.90
44219;DHT22;29889;52.034;5.570;2022-08-07T03:12:46;20.50;99.90
44219;DHT22;29889;52.034;5.570;2022-08-07T03:13:17;20.50;99.90
44219;DHT22;29889;52.034;5.570;2022-08-07T03:13:48;20.40;99.90
44219;DHT22;29889;52.034;5.570;2022-08-07T03:14:21;20.50;99.90
44219;DHT22;29889;52.034;5.570;2022-08-07T03:14:52;20.50;99.90
44219;DHT22;29889;52.034;5.570;2022-08-07T03:15:26;20.40;99.90
44219;DHT22;29889;52.034;5.570;2022-08-07T03:15:57;20.40;99.90
44219;DHT22;29889;52.034;5.570;2022-08-07T03:16:30;20.40;99.90
44219;DHT22;29889;52.034;5.570;2022-08-07T03:17:02;20.40;99.90
44219;DHT22;29889;52.034;5.570;2022-08-07T03:17:34;20.40;99.90
44219;DHT22;29889;52.034;5.570;2022-08-07T03:18:04;20.40;99.90
44219;DHT22;29889;52.034;5.570;2022-08-07T03:18:35;20.40;99.90
44219;DHT22;29889;52.034;5.570;2022-08-07T03:19:07;20.40;99.90
44219;DHT22;29889;52.034;5.570;2022-08-07T03:19:39;20.40;99.90
44219;DHT22;29889;52.034;5.570;2022-08-07T03:20:10;20.40;99.90
44219;DHT22;29889;52.034;5.570;2022-08-07T03:20:41;20.40;99.90
44219;DHT22;29889;52.034;5.570;2022-08-07T03:21:12;20.40;99.90
44219;DHT22;29889;52.034;5.570;2022-08-07T03:21:43;20.40;99.90
44219;DHT22;29889;52.034;5.570;2022-08-07T03:22:15;20.40;99.90
44219;DHT22;29889;52.034;5.570;2022-08-07T03:22:46;20.40;99.90
44219;DHT22;29889;52.034;5.570;2022-08-07T03:23:19;20.40;99.90
44219;DHT22;29889;52.034;5.570;2022-08-07T03:23:53;20.40;99.90